sensor_id;sensor_type;location;lat;lon;timestamp;temperature;humidity
34768;DHT22;21755;43.608;1.236;2022-10-16T00:01:12;16.90;99.90
34768;DHT22;21755;43.608;1.236;2022-10-16T00:03:40;16.90;99.90
34768;DHT22;21755;43.608;1.236;2022-10-16T00:06:07;16.90;99.90
34768;DHT22;21755;43.608;1.236;2022-10-16T00:08:34;16.90;99.90
34768;DHT22;21755;43.608;1.236;2022-10-16T00:11:03;16.90;99.90
34768;DHT22;21755;43.608;1.236;2022-10-16T00:13:30;16.90;99.90
34768;DHT22;21755;43.608;1.236;2022-10-16T00:15:58;16.80;99.90
34768;DHT22;21755;43.608;1.236;2022-10-16T00:18:24;16.90;99.90
34768;DHT22;21755;43.608;1.236;2022-10-16T00:20:51;16.90;99.90
34768;DHT22;21755;43.608;1.236;2022-10-16T00:23:17;16.90;99.90
34768;DHT22;21755;43.608;1.236;2022-10-16T00:25:43;16.90;99.90
34768;DHT22;21755;43.608;1.236;2022-10-16T00:28:09;16.90;99.90
34768;DHT22;21755;43.608;1.236;2022-10-16T00:30:39;16.90;99.90
34768;DHT22;21755;43.608;1.236;2022-10-16T00:33:05;16.90;99.90
34768;DHT22;21755;43.608;1.236;2022-10-16T00:35:31;16.90;99.90
34768;DHT22;21755;43.608;1.236;2022-10-16T00:37:57;16.90;99.90
34768;DHT22;21755;43.608;1.236;2022-10-16T00:40:23;16.90;99.90
34768;DHT22;21755;43.608;1.236;2022-10-16T00:42:49;16.90;99.90
34768;DHT22;21755;43.608;1.236;2022-10-16T00:45:15;16.90;99.90
34768;DHT22;21755;43.608;1.236;2022-10-16T00:47:43;16.90;99.90
34768;DHT22;21755;43.608;1.236;2022-10-16T00:52:45;17.00;99.90
34768;DHT22;21755;43.608;1.236;2022-10-16T00:55:12;17.00;99.90
34768;DHT22;21755;43.608;1.236;2022-10-16T00:57:39;17.00;99.90
34768;DHT22;21755;43.608;1.236;2022-10-16T01:00:08;17.00;99.90
34768;DHT22;21755;43.608;1.236;2022-10-16T01:02:35;17.00;99.90
34768;DHT22;21755;43.608;1.236;2022-10-16T01:05:02;17.00;99.90
34768;DHT22;21755;43.608;1.236;2022-10-16T01:08:03;17.00;99.90
34768;DHT22;21755;43.608;1.236;2022-10-16T01:10:48;17.00;99.90
34768;DHT22;21755;43.608;1.236;2022-10-16T01:13:28;17.10;99.90
34768;DHT22;21755;43.608;1.236;2022-10-16T01:18:44;17.10;99.90
34768;DHT22;21755;43.608;1.236;2022-10-16T01:21:23;17.10;99.90
34768;DHT22;21755;43.608;1.236;2022-10-16T01:29:49;17.20;99.90
34768;DHT22;21755;43.608;1.236;2022-10-16T01:35:18;17.20;99.90
34768;DHT22;21755;43.608;1.236;2022-10-16T01:40:25;17.30;99.90
34768;DHT22;21755;43.608;1.236;2022-10-16T01:43:03;17.30;99.90
34768;DHT22;21755;43.608;1.236;2022-10-16T01:45:32;17.30;99.90
34768;DHT22;21755;43.608;1.236;2022-10-16T01:48:00;17.30;99.90
34768;DHT22;21755;43.608;1.236;2022-10-16T01:50:32;17.30;99.90
34768;DHT22;21755;43.608;1.236;2022-10-16T01:53:02;17.40;99.90
34768;DHT22;21755;43.608;1.236;2022-10-16T01:55:32;17.30;99.90
34768;DHT22;21755;43.608;1.236;2022-10-16T01:58:01;17.30;99.90
34768;DHT22;21755;43.608;1.236;2022-10-16T02:00:29;17.30;99.90
34768;DHT22;21755;43.608;1.236;2022-10-16T02:02:58;17.30;99.90
34768;DHT22;21755;43.608;1.236;2022-10-16T02:05:46;17.30;99.90
34768;DHT22;21755;43.608;1.236;2022-10-16T02:08:11;17.30;99.90
34768;DHT22;21755;43.608;1.236;2022-10-16T02:10:37;17.30;99.90
34768;DHT22;21755;43.608;1.236;2022-10-16T02:13:08;17.30;99.90
34768;DHT22;21755;43.608;1.236;2022-10-16T02:15:36;17.30;99.90
34768;DHT22;21755;43.608;1.236;2022-10-16T02:18:05;17.30;99.90
34768;DHT22;21755;43.608;1.236;2022-10-16T02:20:37;17.30;99.90
34768;DHT22;21755;43.608;1.236;2022-10-16T02:23:06;17.30;99.90
34768;DHT22;21755;43.608;1.236;2022-10-16T02:25:37;17.30;99.90
34768;DHT22;21755;43.608;1.236;2022-10-16T02:28:13;17.30;99.90
34768;DHT22;21755;43.608;1.236;2022-10-16T02:30:52;17.30;99.90
34768;DHT22;21755;43.608;1.236;2022-10-16T02:33:21;17.30;99.90
34768;DHT22;21755;43.608;1.236;2022-10-16T02:35:49;17.30;99.90
34768;DHT22;21755;43.608;1.236;2022-10-16T02:38:17;17.30;99.90
34768;DHT22;21755;43.608;1.236;2022-10-16T02:40:45;17.20;99.90
34768;DHT22;21755;43.608;1.236;2022-10-16T02:43:12;17.20;99.90
34768;DHT22;21755;43.608;1.236;2022-10-16T02:45:38;17.20;99.90
34768;DHT22;21755;43.608;1.236;2022-10-16T02:48:04;17.20;99.90
34768;DHT22;21755;43.608;1.236;2022-10-16T02:50:30;17.20;99.90
34768;DHT22;21755;43.608;1.236;2022-10-16T02:52:56;17.20;99.90
34768;DHT22;21755;43.608;1.236;2022-10-16T02:55:22;17.10;99.90
34768;DHT22;21755;43.608;1.236;2022-10-16T02:57:48;17.10;99.90
34768;DHT22;21755;43.608;1.236;2022-10-16T03:00:16;17.10;99.90
34768;DHT22;21755;43.608;1.236;2022-10-16T03:02:42;17.10;99.90
34768;DHT22;21755;43.608;1.236;2022-10-16T03:05:09;17.10;99.90
34768;DHT22;21755;43.608;1.236;2022-10-16T03:07:35;17.00;99.90
34768;DHT22;21755;43.608;1.236;2022-10-16T03:10:01;17.00;99.90
34768;DHT22;21755;43.608;1.236;2022-10-16T03:12:28;17.00;99.90
34768;DHT22;21755;43.608;1.236;2022-10-16T03:14:55;17.00;99.90
34768;DHT22;21755;43.608;1.236;2022-10-16T03:17:22;17.00;99.90
34768;DHT22;21755;43.608;1.236;2022-10-16T03:19:49;16.90;99.90
34768;DHT22;21755;43.608;1.236;2022-10-16T03:22:15;16.90;99.90
34768;DHT22;21755;43.608;1.236;2022-10-16T03:24:41;16.90;99.90
34768;DHT22;21755;43.608;1.236;2022-10-16T03:27:07;16.90;99.90
34768;DHT22;21755;43.608;1.236;2022-10-16T03:29:33;16.90;99.90
34768;DHT22;21755;43.608;1.236;2022-10-16T03:31:59;16.90;99.90
34768;DHT22;21755;43.608;1.236;2022-10-16T03:34:26;16.90;99.90
34768;DHT22;21755;43.608;1.236;2022-10-16T03:36:52;16.90;99.90
34768;DHT22;21755;43.608;1.236;2022-10-16T03:39:19;16.90;99.90
34768;DHT22;21755;43.608;1.236;2022-10-16T03:41:45;16.90;99.90
34768;DHT22;21755;43.608;1.236;2022-10-16T03:44:12;16.90;99.90
34768;DHT22;21755;43.608;1.236;2022-10-16T03:46:38;16.90;99.90
34768;DHT22;21755;43.608;1.236;2022-10-16T03:49:04;16.90;99.90
34768;DHT22;21755;43.608;1.236;2022-10-16T03:51:31;16.90;99.90
34768;DHT22;21755;43.608;1.236;2022-10-16T03:53:57;16.90;99.90
34768;DHT22;21755;43.608;1.236;2022-10-16T03:56:23;16.90;99.90
34768;DHT22;21755;43.608;1.236;2022-10-16T03:58:49;16.90;99.90
34768;DHT22;21755;43.608;1.236;2022-10-16T04:01:15;16.90;99.90
34768;DHT22;21755;43.608;1.236;2022-10-16T04:03:41;16.90;99.90
34768;DHT22;21755;43.608;1.236;2022-10-16T04:06:07;17.00;99.90
34768;DHT22;21755;43.608;1.236;2022-10-16T04:08:34;17.00;99.90
34768;DHT22;21755;43.608;1.236;2022-10-16T04:11:02;17.00;99.90
34768;DHT22;21755;43.608;1.236;2022-10-16T04:13:29;17.00;99.90
34768;DHT22;21755;43.608;1.236;2022-10-16T04:15:55;17.00;99.90
34768;DHT22;21755;43.608;1.236;2022-10-16T04:18:21;17.00;99.90
34768;DHT22;21755;43.608;1.236;2022-10-16T04:20:47;17.10;99.90
34768;DHT22;21755;43.608;1.236;2022-10-16T04:23:13;17.10;99.90
34768;DHT22;21755;43.608;1.236;2022-10-16T04:25:39;17.10;99.90
34768;DHT22;21755;43.608;1.236;2022-10-16T04:28:05;17.10;99.90
34768;DHT22;21755;43.608;1.236;2022-10-16T04:30:31;17.10;99.90
34768;DHT22;21755;43.608;1.236;2022-10-16T04:32:59;17.20;99.90
34768;DHT22;21755;43.608;1.236;2022-10-16T04:35:25;17.20;99.90
34768;DHT22;21755;43.608;1.236;2022-10-16T04:37:51;17.20;99.90
34768;DHT22;21755;43.608;1.236;2022-10-16T04:40:17;17.30;99.90
34768;DHT22;21755;43.608;1.236;2022-10-16T04:42:43;17.30;99.90
34768;DHT22;21755;43.608;1.236;2022-10-16T04:45:09;17.30;99.90
34768;DHT22;21755;43.608;1.236;2022-10-16T04:47:35;17.30;99.90
34768;DHT22;21755;43.608;1.236;2022-10-16T04:50:01;17.30;99.90
34768;DHT22;21755;43.608;1.236;2022-10-16T04:52:28;17.40;99.90
34768;DHT22;21755;43.608;1.236;2022-10-16T04:54:54;17.40;99.90
34768;DHT22;21755;43.608;1.236;2022-10-16T04:57:22;17.40;99.90
34768;DHT22;21755;43.608;1.236;2022-10-16T04:59:48;17.40;99.90
34768;DHT22;21755;43.608;1.236;2022-10-16T05:02:14;17.40;99.90
34768;DHT22;21755;43.608;1.236;2022-10-16T05:04:40;17.40;99.90
34768;DHT22;21755;43.608;1.236;2022-10-16T05:07:06;17.50;99.90
34768;DHT22;21755;43.608;1.236;2022-10-16T05:09:32;17.40;99.90
34768;DHT22;21755;43.608;1.236;2022-10-16T05:11:58;17.50;99.90
34768;DHT22;21755;43.608;1.236;2022-10-16T05:14:24;17.50;99.90
34768;DHT22;21755;43.608;1.236;2022-10-16T05:16:50;17.50;99.90
34768;DHT22;21755;43.608;1.236;2022-10-16T05:19:17;17.50;99.90
34768;DHT22;21755;43.608;1.236;2022-10-16T05:21:43;17.50;99.90
34768;DHT22;21755;43.608;1.236;2022-10-16T05:24:09;17.50;99.90
34768;DHT22;21755;43.608;1.236;2022-10-16T05:26:35;17.60;99.90
34768;DHT22;21755;43.608;1.236;2022-10-16T05:29:01;17.60;99.90
34768;DHT22;21755;43.608;1.236;2022-10-16T05:31:28;17.60;99.90
34768;DHT22;21755;43.608;1.236;2022-10-16T05:33:59;17.60;99.90
34768;DHT22;21755;43.608;1.236;2022-10-16T05:36:25;17.60;99.90
34768;DHT22;21755;43.608;1.236;2022-10-16T05:38:52;17.60;99.90
34768;DHT22;21755;43.608;1.236;2022-10-16T05:41:19;17.60;99.90
34768;DHT22;21755;43.608;1.236;2022-10-16T05:43:50;17.70;99.90
34768;DHT22;21755;43.608;1.236;2022-10-16T05:46:17;17.70;99.90
34768;DHT22;21755;43.608;1.236;2022-10-16T05:48:43;17.70;99.90
34768;DHT22;21755;43.608;1.236;2022-10-16T05:51:12;17.70;99.90
34768;DHT22;21755;43.608;1.236;2022-10-16T05:53:39;17.70;99.90
34768;DHT22;21755;43.608;1.236;2022-10-16T05:56:06;17.80;99.90
34768;DHT22;21755;43.608;1.236;2022-10-16T05:58:35;17.80;99.90
34768;DHT22;21755;43.608;1.236;2022-10-16T06:01:05;17.80;99.90
34768;DHT22;21755;43.608;1.236;2022-10-16T06:03:31;17.80;99.90
34768;DHT22;21755;43.608;1.236;2022-10-16T06:05:57;17.80;99.90
34768;DHT22;21755;43.608;1.236;2022-10-16T06:08:23;17.80;99.90
34768;DHT22;21755;43.608;1.236;2022-10-16T06:11:01;17.80;99.90
34768;DHT22;21755;43.608;1.236;2022-10-16T06:13:27;17.80;99.90
34768;DHT22;21755;43.608;1.236;2022-10-16T06:15:57;17.80;99.90
34768;DHT22;21755;43.608;1.236;2022-10-16T06:18:24;17.80;99.90
34768;DHT22;21755;43.608;1.236;2022-10-16T06:20:51;17.80;99.90
34768;DHT22;21755;43.608;1.236;2022-10-16T06:23:17;17.90;99.90
34768;DHT22;21755;43.608;1.236;2022-10-16T06:25:42;17.90;99.90
34768;DHT22;21755;43.608;1.236;2022-10-16T06:28:09;17.90;99.90
34768;DHT22;21755;43.608;1.236;2022-10-16T06:30:35;17.90;99.90
34768;DHT22;21755;43.608;1.236;2022-10-16T06:33:01;17.90;99.90
34768;DHT22;21755;43.608;1.236;2022-10-16T06:35:27;17.90;99.90
34768;DHT22;21755;43.608;1.236;2022-10-16T06:37:54;17.90;99.90
34768;DHT22;21755;43.608;1.236;2022-10-16T06:40:20;17.90;99.90
34768;DHT22;21755;43.608;1.236;2022-10-16T06:42:46;18.00;99.90
34768;DHT22;21755;43.608;1.236;2022-10-16T06:45:12;18.00;99.90
34768;DHT22;21755;43.608;1.236;2022-10-16T06:47:38;18.00;99.90
34768;DHT22;21755;43.608;1.236;2022-10-16T06:50:05;18.00;99.90
34768;DHT22;21755;43.608;1.236;2022-10-16T06:52:33;18.00;99.90
34768;DHT22;21755;43.608;1.236;2022-10-16T06:55:00;18.10;99.90
34768;DHT22;21755;43.608;1.236;2022-10-16T06:57:26;18.20;99.90
34768;DHT22;21755;43.608;1.236;2022-10-16T06:59:52;18.30;99.90
34768;DHT22;21755;43.608;1.236;2022-10-16T07:02:18;18.30;99.90
34768;DHT22;21755;43.608;1.236;2022-10-16T07:04:44;18.40;99.90
34768;DHT22;21755;43.608;1.236;2022-10-16T07:07:10;18.40;99.90
34768;DHT22;21755;43.608;1.236;2022-10-16T07:09:36;18.40;99.90
34768;DHT22;21755;43.608;1.236;2022-10-16T07:12:02;18.40;99.90
34768;DHT22;21755;43.608;1.236;2022-10-16T07:14:29;18.40;99.90
34768;DHT22;21755;43.608;1.236;2022-10-16T07:16:55;18.40;99.90
34768;DHT22;21755;43.608;1.236;2022-10-16T07:19:21;18.40;99.90
34768;DHT22;21755;43.608;1.236;2022-10-16T07:21:47;18.40;99.90
34768;DHT22;21755;43.608;1.236;2022-10-16T07:24:15;18.40;99.90
34768;DHT22;21755;43.608;1.236;2022-10-16T07:26:44;18.50;99.90
34768;DHT22;21755;43.608;1.236;2022-10-16T07:29:15;18.50;99.90
34768;DHT22;21755;43.608;1.236;2022-10-16T07:31:42;18.50;99.90
34768;DHT22;21755;43.608;1.236;2022-10-16T07:34:09;18.60;99.90
34768;DHT22;21755;43.608;1.236;2022-10-16T07:36:42;18.60;99.90
34768;DHT22;21755;43.608;1.236;2022-10-16T07:39:08;18.60;99.90
34768;DHT22;21755;43.608;1.236;2022-10-16T07:41:35;18.70;99.90
34768;DHT22;21755;43.608;1.236;2022-10-16T07:44:05;18.70;99.90
34768;DHT22;21755;43.608;1.236;2022-10-16T07:46:32;18.80;99.90
34768;DHT22;21755;43.608;1.236;2022-10-16T07:48:59;18.80;99.90
34768;DHT22;21755;43.608;1.236;2022-10-16T07:51:26;18.90;99.90
34768;DHT22;21755;43.608;1.236;2022-10-16T07:53:53;18.90;99.90
34768;DHT22;21755;43.608;1.236;2022-10-16T07:56:20;18.90;99.90
34768;DHT22;21755;43.608;1.236;2022-10-16T07:58:47;18.90;99.90
34768;DHT22;21755;43.608;1.236;2022-10-16T08:01:16;19.00;99.90
34768;DHT22;21755;43.608;1.236;2022-10-16T08:03:47;19.20;99.90
34768;DHT22;21755;43.608;1.236;2022-10-16T08:06:14;19.20;99.90
34768;DHT22;21755;43.608;1.236;2022-10-16T08:08:40;19.40;99.90
34768;DHT22;21755;43.608;1.236;2022-10-16T08:11:06;19.50;99.90
34768;DHT22;21755;43.608;1.236;2022-10-16T08:13:32;19.60;99.90
34768;DHT22;21755;43.608;1.236;2022-10-16T08:15:58;19.70;99.90
34768;DHT22;21755;43.608;1.236;2022-10-16T08:18:24;19.80;99.90
34768;DHT22;21755;43.608;1.236;2022-10-16T08:20:59;19.90;99.90
34768;DHT22;21755;43.608;1.236;2022-10-16T08:23:26;20.00;99.90
34768;DHT22;21755;43.608;1.236;2022-10-16T08:25:54;20.10;99.90
34768;DHT22;21755;43.608;1.236;2022-10-16T08:28:21;20.20;99.90
34768;DHT22;21755;43.608;1.236;2022-10-16T08:30:47;20.30;99.90
34768;DHT22;21755;43.608;1.236;2022-10-16T08:33:13;20.40;99.90
34768;DHT22;21755;43.608;1.236;2022-10-16T08:35:39;20.50;99.90
34768;DHT22;21755;43.608;1.236;2022-10-16T08:38:06;20.50;99.90
34768;DHT22;21755;43.608;1.236;2022-10-16T08:40:34;20.50;99.90
34768;DHT22;21755;43.608;1.236;2022-10-16T08:48:36;20.80;99.90
34768;DHT22;21755;43.608;1.236;2022-10-16T08:51:04;20.90;99.90
34768;DHT22;21755;43.608;1.236;2022-10-16T08:53:35;21.00;99.90
34768;DHT22;21755;43.608;1.236;2022-10-16T08:56:03;21.10;99.90
34768;DHT22;21755;43.608;1.236;2022-10-16T08:58:30;21.10;99.90
34768;DHT22;21755;43.608;1.236;2022-10-16T09:00:59;21.10;99.90
34768;DHT22;21755;43.608;1.236;2022-10-16T09:03:52;21.20;99.90
34768;DHT22;21755;43.608;1.236;2022-10-16T09:12:12;21.50;99.90
34768;DHT22;21755;43.608;1.236;2022-10-16T09:14:42;21.70;99.90
34768;DHT22;21755;43.608;1.236;2022-10-16T09:20:28;21.80;99.90
34768;DHT22;21755;43.608;1.236;2022-10-16T09:25:38;21.80;99.90
34768;DHT22;21755;43.608;1.236;2022-10-16T09:28:05;21.90;99.90
34768;DHT22;21755;43.608;1.236;2022-10-16T09:30:32;22.00;99.90
34768;DHT22;21755;43.608;1.236;2022-10-16T09:32:58;21.90;99.90
34768;DHT22;21755;43.608;1.236;2022-10-16T09:35:43;22.10;99.90
34768;DHT22;21755;43.608;1.236;2022-10-16T09:38:25;22.20;99.90
34768;DHT22;21755;43.608;1.236;2022-10-16T09:40:52;22.30;99.90
34768;DHT22;21755;43.608;1.236;2022-10-16T09:46:02;22.40;99.90
34768;DHT22;21755;43.608;1.236;2022-10-16T09:48:37;22.40;99.90
34768;DHT22;21755;43.608;1.236;2022-10-16T09:51:06;22.50;99.90
34768;DHT22;21755;43.608;1.236;2022-10-16T09:53:41;22.60;99.90
34768;DHT22;21755;43.608;1.236;2022-10-16T09:56:20;22.60;99.90
34768;DHT22;21755;43.608;1.236;2022-10-16T09:58:51;22.60;99.90
34768;DHT22;21755;43.608;1.236;2022-10-16T10:01:19;22.60;99.90
34768;DHT22;21755;43.608;1.236;2022-10-16T10:03:46;22.70;99.90
34768;DHT22;21755;43.608;1.236;2022-10-16T10:06:23;22.70;99.90
34768;DHT22;21755;43.608;1.236;2022-10-16T10:09:03;22.60;99.90
34768;DHT22;21755;43.608;1.236;2022-10-16T10:12:05;22.70;99.90
34768;DHT22;21755;43.608;1.236;2022-10-16T10:17:20;23.00;99.90
34768;DHT22;21755;43.608;1.236;2022-10-16T10:19:50;23.10;99.90
34768;DHT22;21755;43.608;1.236;2022-10-16T10:22:26;23.20;99.90
34768;DHT22;21755;43.608;1.236;2022-10-16T10:33:45;23.30;99.90
34768;DHT22;21755;43.608;1.236;2022-10-16T10:38:51;23.40;99.90
34768;DHT22;21755;43.608;1.236;2022-10-16T10:41:40;23.50;99.90
34768;DHT22;21755;43.608;1.236;2022-10-16T11:00:28;24.00;99.90
34768;DHT22;21755;43.608;1.236;2022-10-16T11:03:13;24.10;99.90
34768;DHT22;21755;43.608;1.236;2022-10-16T11:09:00;24.10;99.90
34768;DHT22;21755;43.608;1.236;2022-10-16T11:11:42;24.10;99.90
34768;DHT22;21755;43.608;1.236;2022-10-16T11:22:23;24.40;99.90
34768;DHT22;21755;43.608;1.236;2022-10-16T11:28:17;24.50;99.90
34768;DHT22;21755;43.608;1.236;2022-10-16T11:33:41;24.60;99.90
34768;DHT22;21755;43.608;1.236;2022-10-16T11:41:42;24.60;99.90
34768;DHT22;21755;43.608;1.236;2022-10-16T11:44:44;24.60;99.90
34768;DHT22;21755;43.608;1.236;2022-10-16T11:49:59;24.80;99.90
34768;DHT22;21755;43.608;1.236;2022-10-16T11:55:22;24.90;99.90
34768;DHT22;21755;43.608;1.236;2022-10-16T11:57:54;24.90;99.90
34768;DHT22;21755;43.608;1.236;2022-10-16T12:00:28;24.90;99.90
34768;DHT22;21755;43.608;1.236;2022-10-16T12:03:17;24.90;99.90
34768;DHT22;21755;43.608;1.236;2022-10-16T12:08:42;25.10;99.90
34768;DHT22;21755;43.608;1.236;2022-10-16T12:11:34;25.10;99.90
34768;DHT22;21755;43.608;1.236;2022-10-16T12:16:33;25.20;99.90
34768;DHT22;21755;43.608;1.236;2022-10-16T12:19:16;25.20;99.90
34768;DHT22;21755;43.608;1.236;2022-10-16T12:21:44;25.20;99.90
34768;DHT22;21755;43.608;1.236;2022-10-16T12:24:36;25.20;99.90
34768;DHT22;21755;43.608;1.236;2022-10-16T12:27:21;25.10;99.90
34768;DHT22;21755;43.608;1.236;2022-10-16T12:29:55;25.20;99.90
34768;DHT22;21755;43.608;1.236;2022-10-16T12:32:30;25.10;99.90
34768;DHT22;21755;43.608;1.236;2022-10-16T12:34:58;25.10;99.90
34768;DHT22;21755;43.608;1.236;2022-10-16T12:37:27;25.00;99.90
34768;DHT22;21755;43.608;1.236;2022-10-16T12:39:55;24.90;99.90
34768;DHT22;21755;43.608;1.236;2022-10-16T12:42:23;24.80;99.90
34768;DHT22;21755;43.608;1.236;2022-10-16T12:44:56;24.80;99.90
34768;DHT22;21755;43.608;1.236;2022-10-16T12:47:49;24.80;99.90
34768;DHT22;21755;43.608;1.236;2022-10-16T12:50:37;24.80;99.90
34768;DHT22;21755;43.608;1.236;2022-10-16T12:53:26;24.70;99.90
34768;DHT22;21755;43.608;1.236;2022-10-16T13:01:35;24.80;99.90
34768;DHT22;21755;43.608;1.236;2022-10-16T13:04:29;24.90;99.90
34768;DHT22;21755;43.608;1.236;2022-10-16T13:10:20;25.20;99.90
34768;DHT22;21755;43.608;1.236;2022-10-16T13:19:17;25.00;99.90
34768;DHT22;21755;43.608;1.236;2022-10-16T13:29:45;24.80;99.90
34768;DHT22;21755;43.608;1.236;2022-10-16T13:32:19;24.90;99.90
34768;DHT22;21755;43.608;1.236;2022-10-16T13:34:47;25.00;99.90
34768;DHT22;21755;43.608;1.236;2022-10-16T13:37:21;24.90;99.90
34768;DHT22;21755;43.608;1.236;2022-10-16T13:39:48;25.00;99.90
34768;DHT22;21755;43.608;1.236;2022-10-16T13:42:24;25.20;99.90
34768;DHT22;21755;43.608;1.236;2022-10-16T13:44:53;25.10;99.90
34768;DHT22;21755;43.608;1.236;2022-10-16T13:47:21;25.10;99.90
34768;DHT22;21755;43.608;1.236;2022-10-16T13:50:00;25.10;99.90
34768;DHT22;21755;43.608;1.236;2022-10-16T13:52:26;25.10;99.90
34768;DHT22;21755;43.608;1.236;2022-10-16T13:54:52;25.20;99.90
34768;DHT22;21755;43.608;1.236;2022-10-16T13:57:22;25.20;99.90
34768;DHT22;21755;43.608;1.236;2022-10-16T13:59:48;25.20;99.90
34768;DHT22;21755;43.608;1.236;2022-10-16T14:02:22;25.10;99.90
34768;DHT22;21755;43.608;1.236;2022-10-16T14:04:51;25.10;99.90
34768;DHT22;21755;43.608;1.236;2022-10-16T14:07:27;25.10;99.90
34768;DHT22;21755;43.608;1.236;2022-10-16T14:09:54;25.10;99.90
34768;DHT22;21755;43.608;1.236;2022-10-16T14:12:22;25.00;99.90
34768;DHT22;21755;43.608;1.236;2022-10-16T14:14:51;25.00;99.90
34768;DHT22;21755;43.608;1.236;2022-10-16T14:17:30;25.00;99.90
34768;DHT22;21755;43.608;1.236;2022-10-16T14:19:59;25.00;99.90
34768;DHT22;21755;43.608;1.236;2022-10-16T14:22:43;24.90;99.90
34768;DHT22;21755;43.608;1.236;2022-10-16T14:28:05;24.70;99.90
34768;DHT22;21755;43.608;1.236;2022-10-16T14:30:56;24.60;99.90
34768;DHT22;21755;43.608;1.236;2022-10-16T14:36:02;24.30;99.90
34768;DHT22;21755;43.608;1.236;2022-10-16T14:38:29;24.20;99.90
34768;DHT22;21755;43.608;1.236;2022-10-16T14:40:57;24.20;99.90
34768;DHT22;21755;43.608;1.236;2022-10-16T14:43:34;24.10;99.90
34768;DHT22;21755;43.608;1.236;2022-10-16T14:46:03;24.00;99.90
34768;DHT22;21755;43.608;1.236;2022-10-16T14:48:32;24.00;99.90
34768;DHT22;21755;43.608;1.236;2022-10-16T14:50:58;24.00;99.90
34768;DHT22;21755;43.608;1.236;2022-10-16T14:53:24;24.00;99.90
34768;DHT22;21755;43.608;1.236;2022-10-16T14:55:50;24.00;99.90
34768;DHT22;21755;43.608;1.236;2022-10-16T14:58:22;24.00;99.90
34768;DHT22;21755;43.608;1.236;2022-10-16T15:00:49;24.10;99.90
34768;DHT22;21755;43.608;1.236;2022-10-16T15:03:15;24.10;99.90
34768;DHT22;21755;43.608;1.236;2022-10-16T15:05:41;24.20;99.90
34768;DHT22;21755;43.608;1.236;2022-10-16T15:08:07;24.20;99.90
34768;DHT22;21755;43.608;1.236;2022-10-16T15:10:39;24.20;99.90
34768;DHT22;21755;43.608;1.236;2022-10-16T15:13:06;24.20;99.90
34768;DHT22;21755;43.608;1.236;2022-10-16T15:15:39;24.20;99.90
34768;DHT22;21755;43.608;1.236;2022-10-16T15:18:06;24.20;99.90
34768;DHT22;21755;43.608;1.236;2022-10-16T15:20:37;24.10;99.90
34768;DHT22;21755;43.608;1.236;2022-10-16T15:23:14;24.20;99.90
34768;DHT22;21755;43.608;1.236;2022-10-16T15:25:49;24.20;99.90
34768;DHT22;21755;43.608;1.236;2022-10-16T15:28:17;24.30;99.90
34768;DHT22;21755;43.608;1.236;2022-10-16T15:30:44;24.20;99.90
34768;DHT22;21755;43.608;1.236;2022-10-16T15:33:15;24.20;99.90
34768;DHT22;21755;43.608;1.236;2022-10-16T15:35:42;24.20;99.90
34768;DHT22;21755;43.608;1.236;2022-10-16T15:38:12;24.20;99.90
34768;DHT22;21755;43.608;1.236;2022-10-16T15:40:39;24.20;99.90
34768;DHT22;21755;43.608;1.236;2022-10-16T15:43:06;24.20;99.90
34768;DHT22;21755;43.608;1.236;2022-10-16T15:45:32;24.10;99.90
34768;DHT22;21755;43.608;1.236;2022-10-16T15:47:58;24.10;99.90
34768;DHT22;21755;43.608;1.236;2022-10-16T15:50:24;24.00;99.90
34768;DHT22;21755;43.608;1.236;2022-10-16T15:52:51;24.00;99.90
34768;DHT22;21755;43.608;1.236;2022-10-16T15:55:25;24.00;99.90
34768;DHT22;21755;43.608;1.236;2022-10-16T15:57:51;23.90;99.90
34768;DHT22;21755;43.608;1.236;2022-10-16T16:00:19;23.90;99.90
34768;DHT22;21755;43.608;1.236;2022-10-16T16:02:53;23.80;99.90
34768;DHT22;21755;43.608;1.236;2022-10-16T16:05:20;23.80;99.90
34768;DHT22;21755;43.608;1.236;2022-10-16T16:07:47;23.70;99.90
34768;DHT22;21755;43.608;1.236;2022-10-16T16:10:14;23.70;99.90
34768;DHT22;21755;43.608;1.236;2022-10-16T16:12:40;23.60;99.90
34768;DHT22;21755;43.608;1.236;2022-10-16T16:15:07;23.60;99.90
34768;DHT22;21755;43.608;1.236;2022-10-16T16:17:35;23.50;99.90
34768;DHT22;21755;43.608;1.236;2022-10-16T16:20:03;23.50;99.90
34768;DHT22;21755;43.608;1.236;2022-10-16T16:22:30;23.40;99.90
34768;DHT22;21755;43.608;1.236;2022-10-16T16:24:56;23.30;99.90
34768;DHT22;21755;43.608;1.236;2022-10-16T16:27:22;23.30;99.90
34768;DHT22;21755;43.608;1.236;2022-10-16T16:29:50;23.30;99.90
34768;DHT22;21755;43.608;1.236;2022-10-16T16:32:16;23.20;99.90
34768;DHT22;21755;43.608;1.236;2022-10-16T16:34:42;23.10;99.90
34768;DHT22;21755;43.608;1.236;2022-10-16T16:37:08;23.10;99.90
34768;DHT22;21755;43.608;1.236;2022-10-16T16:39:34;23.00;99.90
34768;DHT22;21755;43.608;1.236;2022-10-16T16:42:00;22.90;99.90
34768;DHT22;21755;43.608;1.236;2022-10-16T16:44:28;22.80;99.90
34768;DHT22;21755;43.608;1.236;2022-10-16T16:46:54;22.80;99.90
34768;DHT22;21755;43.608;1.236;2022-10-16T16:49:20;22.70;99.90
34768;DHT22;21755;43.608;1.236;2022-10-16T16:51:46;22.60;99.90
34768;DHT22;21755;43.608;1.236;2022-10-16T16:54:12;22.50;99.90
34768;DHT22;21755;43.608;1.236;2022-10-16T16:56:39;22.50;99.90
34768;DHT22;21755;43.608;1.236;2022-10-16T16:59:15;22.50;99.90
34768;DHT22;21755;43.608;1.236;2022-10-16T17:01:41;22.40;99.90
34768;DHT22;21755;43.608;1.236;2022-10-16T17:04:07;22.40;99.90
34768;DHT22;21755;43.608;1.236;2022-10-16T17:06:33;22.30;99.90
34768;DHT22;21755;43.608;1.236;2022-10-16T17:09:01;22.20;99.90
34768;DHT22;21755;43.608;1.236;2022-10-16T17:11:28;22.10;99.90
34768;DHT22;21755;43.608;1.236;2022-10-16T17:13:56;22.10;99.90
34768;DHT22;21755;43.608;1.236;2022-10-16T17:16:25;22.10;99.90
34768;DHT22;21755;43.608;1.236;2022-10-16T17:18:51;22.00;99.90
34768;DHT22;21755;43.608;1.236;2022-10-16T17:21:19;21.90;99.90
34768;DHT22;21755;43.608;1.236;2022-10-16T17:23:45;21.90;99.90
34768;DHT22;21755;43.608;1.236;2022-10-16T17:26:16;21.80;99.90
34768;DHT22;21755;43.608;1.236;2022-10-16T17:28:43;21.80;99.90
34768;DHT22;21755;43.608;1.236;2022-10-16T17:31:12;21.70;99.90
34768;DHT22;21755;43.608;1.236;2022-10-16T17:33:38;21.70;99.90
34768;DHT22;21755;43.608;1.236;2022-10-16T17:36:05;21.70;99.90
34768;DHT22;21755;43.608;1.236;2022-10-16T17:38:32;21.60;99.90
34768;DHT22;21755;43.608;1.236;2022-10-16T17:41:06;21.60;99.90
34768;DHT22;21755;43.608;1.236;2022-10-16T17:43:34;21.50;99.90
34768;DHT22;21755;43.608;1.236;2022-10-16T17:46:02;21.50;99.90
34768;DHT22;21755;43.608;1.236;2022-10-16T17:48:28;21.40;99.90
34768;DHT22;21755;43.608;1.236;2022-10-16T17:50:54;21.40;99.90
34768;DHT22;21755;43.608;1.236;2022-10-16T17:53:20;21.40;99.90